Time;durP1;ratioP1;P1;durP2;ratioP2;P2;SDS_P1;SDS_P2;PMS_P1;PMS_P2;Temp;Humidity;BMP_temperature;BMP_pressure;BME280_temperature;BME280_humidity;BME280_pressure;Samples;Min_cycle;Max_cycle;Signal;HPM_P1;HPM_P2
2023/12/17 05:46:10;;;;;;;13.68;7.00;;;;;;;9.42;100.00;103381.78;5816236;24;21058;31
2023/12/17 05:48:35;;;;;;;12.95;6.68;;;;;;;9.53;100.00;103398.06;4772795;29;20055;-76
2023/12/17 05:51:01;;;;;;;18.08;8.02;;;;;;;9.48;100.00;103389.75;4782519;29;20492;-76
2023/12/17 05:53:26;;;;;;;12.65;7.53;;;;;;;9.46;100.00;103396.78;4785747;29;20065;-76
2023/12/17 05:55:52;;;;;;;11.93;7.45;;;;;;;9.43;100.00;103398.25;4780458;29;20042;-75
2023/12/17 05:58:18;;;;;;;16.48;7.90;;;;;;;9.48;100.00;103402.91;4785197;29;20035;-76
2023/12/17 06:00:43;;;;;;;9.48;7.32;;;;;;;9.42;100.00;103402.16;4787081;29;20465;-76
2023/12/17 06:03:08;;;;;;;13.50;7.22;;;;;;;9.45;100.00;103403.53;4785626;29;20027;-76
2023/12/17 06:05:34;;;;;;;12.05;8.40;;;;;;;9.49;100.00;103408.19;4783906;29;20418;-76
2023/12/17 06:07:59;;;;;;;11.50;8.02;;;;;;;9.44;100.00;103404.66;4784306;29;20035;-76
2023/12/17 06:10:27;;;;;;;14.38;7.47;;;;;;;9.44;100.00;103413.03;4795710;29;20066;-76
2023/12/17 06:12:52;;;;;;;9.95;7.15;;;;;;;9.45;100.00;103395.97;4780397;29;20027;-76
2023/12/17 06:15:18;;;;;;;12.15;7.55;;;;;;;9.42;100.00;103396.56;4783495;29;20058;-76
2023/12/17 06:17:43;;;;;;;12.98;7.28;;;;;;;9.42;100.00;103393.78;4779319;29;20449;-76
2023/12/17 06:20:09;;;;;;;12.70;7.85;;;;;;;9.45;100.00;103395.97;4785324;29;20039;-76
2023/12/17 06:22:35;;;;;;;17.67;7.60;;;;;;;9.41;100.00;103396.91;4782484;30;20031;-76
2023/12/17 06:25:00;;;;;;;15.15;8.07;;;;;;;9.39;100.00;103397.19;4784041;29;20023;-76
2023/12/17 06:27:25;;;;;;;13.23;7.60;;;;;;;9.38;100.00;103395.53;4782166;29;20119;-76
2023/12/17 06:29:52;;;;;;;15.88;8.20;;;;;;;9.36;100.00;103393.06;4782102;29;20031;-76
2023/12/17 06:32:17;;;;;;;13.25;8.60;;;;;;;9.35;100.00;103407.34;4783400;29;20060;-76
2023/12/17 06:34:43;;;;;;;13.65;7.13;;;;;;;9.34;100.00;103414.09;4781493;29;20039;-76
2023/12/17 06:37:10;;;;;;;15.75;7.97;;;;;;;9.38;100.00;103406.72;4785362;29;20031;-76
2023/12/17 06:39:35;;;;;;;15.25;8.70;;;;;;;9.35;100.00;103407.34;4782442;29;20115;-76
2023/12/17 06:42:01;;;;;;;13.40;7.75;;;;;;;9.37;100.00;103410.66;4781238;29;20520;-76
2023/12/17 06:44:26;;;;;;;16.45;9.45;;;;;;;9.34;100.00;103403.72;4785519;29;20772;-77
2023/12/17 06:46:51;;;;;;;15.35;8.63;;;;;;;9.43;100.00;103408.59;4784387;29;20047;-76
2023/12/17 06:49:17;;;;;;;13.93;7.78;;;;;;;9.39;100.00;103413.97;4784553;29;20126;-76
2023/12/17 06:51:42;;;;;;;16.55;8.45;;;;;;;9.41;100.00;103414.50;4782009;29;20464;-76
2023/12/17 06:54:08;;;;;;;14.30;7.90;;;;;;;9.32;100.00;103408.78;4785398;29;20035;-76
2023/12/17 06:56:33;;;;;;;16.25;9.82;;;;;;;9.35;100.00;103413.75;4784800;29;20106;-76
2023/12/17 06:58:59;;;;;;;18.15;8.85;;;;;;;9.30;100.00;103413.03;4798152;29;20043;-76
2023/12/17 07:01:24;;;;;;;22.55;10.88;;;;;;;9.28;100.00;103413.34;4783469;29;20063;-76
2023/12/17 07:03:50;;;;;;;24.55;12.27;;;;;;;9.32;100.00;103407.97;4784521;29;20035;-76
2023/12/17 07:06:15;;;;;;;17.35;10.32;;;;;;;9.28;100.00;103406.91;4783942;29;20488;-76
2023/12/17 07:08:41;;;;;;;18.67;10.07;;;;;;;9.32;100.00;103403.19;4783574;29;20027;-76
2023/12/17 07:11:07;;;;;;;18.65;10.60;;;;;;;9.33;100.00;103410.44;4784822;29;20043;-76
2023/12/17 07:13:32;;;;;;;18.02;9.68;;;;;;;9.29;100.00;103419.75;4783815;30;20115;-76
2023/12/17 07:15:58;;;;;;;19.42;10.15;;;;;;;9.33;100.00;103406.81;4780824;29;20049;-76
2023/12/17 07:18:23;;;;;;;20.30;8.63;;;;;;;9.30;100.00;103418.63;4781402;29;20031;-76
2023/12/17 07:20:49;;;;;;;14.63;8.27;;;;;;;9.32;100.00;103407.97;4783880;29;20059;-76
2023/12/17 07:23:14;;;;;;;21.55;7.97;;;;;;;9.30;100.00;103404.66;4782341;29;20041;-76
2023/12/17 07:25:39;;;;;;;17.25;7.90;;;;;;;9.31;100.00;103406.28;4784764;29;20106;-76
2023/12/17 07:28:05;;;;;;;12.90;7.88;;;;;;;9.28;100.00;103418.09;4784597;29;20050;-76
2023/12/17 07:30:31;;;;;;;16.55;7.30;;;;;;;9.27;100.00;103406.06;4784255;29;20047;-76
2023/12/17 07:32:56;;;;;;;18.13;6.53;;;;;;;9.26;100.00;103403.59;4778713;30;20464;-76
2023/12/17 07:35:22;;;;;;;17.65;7.32;;;;;;;9.22;100.00;103414.56;4782566;29;20063;-76
2023/12/17 07:37:47;;;;;;;16.35;7.15;;;;;;;9.24;100.00;103400.28;4795176;29;20031;-76
2023/12/17 07:40:12;;;;;;;14.93;6.72;;;;;;;9.23;100.00;103401.41;4780498;29;20049;-76
2023/12/17 07:42:38;;;;;;;17.02;7.32;;;;;;;9.23;100.00;103407.81;4780202;29;20023;-76
2023/12/17 07:45:04;;;;;;;17.52;7.72;;;;;;;9.25;100.00;103413.94;4780726;29;20074;-76
2023/12/17 07:47:30;;;;;;;18.75;6.40;;;;;;;9.28;100.00;103402.16;4780428;29;20508;-76
2023/12/17 07:49:56;;;;;;;10.68;7.03;;;;;;;9.29;100.00;103405.78;4779230;29;20045;-76
2023/12/17 07:52:22;;;;;;;12.02;6.55;;;;;;;9.28;100.00;103398.53;4794590;29;20038;-76
2023/12/17 07:54:48;;;;;;;15.95;6.75;;;;;;;9.26;100.00;103406.41;4781194;29;20051;-76
2023/12/17 07:57:14;;;;;;;14.80;7.13;;;;;;;9.26;100.00;103398.00;4782713;29;20046;-76
2023/12/17 07:59:39;;;;;;;11.85;5.57;;;;;;;9.34;100.00;103397.31;4782245;29;20043;-76
2023/12/17 08:02:05;;;;;;;13.38;5.20;;;;;;;9.31;100.00;103395.94;4779912;29;20043;-76
2023/12/17 08:04:30;;;;;;;13.90;6.70;;;;;;;9.28;100.00;103393.78;4783074;29;20046;-76
2023/12/17 08:06:56;;;;;;;15.02;6.10;;;;;;;9.31;100.00;103395.13;4782564;29;20809;-76
2023/12/17 08:09:21;;;;;;;11.98;5.60;;;;;;;9.28;100.00;103406.91;4781947;29;20043;-76
2023/12/17 08:11:46;;;;;;;15.57;6.95;;;;;;;9.30;100.00;103394.28;4783175;29;20039;-76
2023/12/17 08:14:12;;;;;;;10.70;5.40;;;;;;;9.32;100.00;103396.78;4781632;29;20093;-76
2023/12/17 08:16:37;;;;;;;16.30;6.88;;;;;;;9.27;100.00;103391.28;4781420;29;20096;-76
2023/12/17 08:19:03;;;;;;;15.20;8.13;;;;;;;9.26;100.00;103392.44;4781822;29;20035;-76
2023/12/17 08:21:28;;;;;;;13.95;8.10;;;;;;;9.26;100.00;103392.44;4781543;29;20039;-76
2023/12/17 08:23:53;;;;;;;17.45;7.22;;;;;;;9.36;100.00;103386.66;4780318;29;20070;-76
2023/12/17 08:26:19;;;;;;;17.02;6.90;;;;;;;9.32;100.00;103391.19;4779400;30;20043;-76
2023/12/17 08:28:44;;;;;;;16.30;8.50;;;;;;;9.25;100.00;103391.56;4782148;30;20070;-76
2023/12/17 08:31:10;;;;;;;16.00;8.02;;;;;;;9.34;100.00;103397.31;4781636;30;20104;-76
2023/12/17 08:33:36;;;;;;;17.40;8.10;;;;;;;9.31;100.00;103386.72;4781304;29;20042;-76
2023/12/17 08:36:02;;;;;;;14.38;7.63;;;;;;;9.24;100.00;103394.69;4783204;29;20030;-76
2023/12/17 08:38:27;;;;;;;14.90;7.05;;;;;;;9.25;100.00;103390.75;4792076;29;20035;-76
2023/12/17 08:40:54;;;;;;;20.63;10.23;;;;;;;9.31;100.00;103390.34;4782363;29;20035;-76
2023/12/17 08:43:19;;;;;;;16.25;8.10;;;;;;;9.31;100.00;103383.94;4792514;29;20161;-76
2023/12/17 08:45:45;;;;;;;19.08;9.35;;;;;;;9.27;100.00;103385.69;4781155;29;20122;-76
2023/12/17 08:48:10;;;;;;;22.08;10.38;;;;;;;9.29;100.00;103383.41;4794121;29;20051;-76
2023/12/17 08:50:35;;;;;;;21.88;10.15;;;;;;;9.31;100.00;103389.53;4780332;29;20070;-76
2023/12/17 08:53:01;;;;;;;26.20;10.55;;;;;;;9.35;100.00;103384.97;4795556;29;20035;-76
2023/12/17 08:55:27;;;;;;;27.00;12.05;;;;;;;9.30;100.00;103377.53;4783619;29;20142;-76
2023/12/17 08:57:53;;;;;;;21.13;9.65;;;;;;;9.28;100.00;103384.56;4779994;29;20072;-76
2023/12/17 09:00:18;;;;;;;23.35;11.45;;;;;;;9.33;100.00;103392.84;4790360;29;20480;-76
2023/12/17 09:02:43;;;;;;;30.20;12.00;;;;;;;9.29;100.00;103380.63;4780194;29;20085;-76
2023/12/17 09:05:09;;;;;;;33.42;13.05;;;;;;;9.26;100.00;103387.66;4783398;29;20081;-76
2023/12/17 09:07:34;;;;;;;31.90;12.90;;;;;;;9.20;100.00;103390.84;4781539;29;20031;-76
2023/12/17 09:10:00;;;;;;;28.88;12.00;;;;;;;9.23;100.00;103382.66;4786941;29;20448;-76
2023/12/17 09:12:26;;;;;;;30.88;13.63;;;;;;;9.22;100.00;103391.38;4783855;29;20035;-76
2023/12/17 09:14:51;;;;;;;33.53;13.25;;;;;;;9.25;100.00;103383.19;4781527;29;20055;-76
2023/12/17 09:17:17;;;;;;;27.95;11.80;;;;;;;9.30;100.00;103382.28;4780646;29;20039;-76
2023/12/17 09:19:42;;;;;;;34.53;14.10;;;;;;;9.24;100.00;103383.53;4791378;29;20035;-76
2023/12/17 09:22:07;;;;;;;24.17;11.52;;;;;;;9.21;100.00;103378.53;4785015;29;20042;-76
2023/12/17 09:24:33;;;;;;;26.70;12.73;;;;;;;9.23;100.00;103382.66;4784728;29;20122;-76
2023/12/17 09:26:59;;;;;;;29.30;11.70;;;;;;;9.26;100.00;103387.66;4782661;29;20046;-76
2023/12/17 09:29:25;;;;;;;29.05;13.50;;;;;;;9.25;100.00;103390.75;4784129;29;20036;-76
2023/12/17 09:31:50;;;;;;;23.73;12.00;;;;;;;9.27;100.00;103388.47;4797515;29;20050;-76
2023/12/17 09:34:16;;;;;;;30.42;13.20;;;;;;;9.26;100.00;103389.63;4769805;29;20072;-75
2023/12/17 09:36:41;;;;;;;19.63;10.05;;;;;;;9.23;100.00;103387.44;4775709;29;20787;-75
2023/12/17 09:39:08;;;;;;;23.65;10.27;;;;;;;9.26;100.00;103376.47;4781687;29;20399;-76
2023/12/17 09:41:33;;;;;;;22.52;9.15;;;;;;;9.26;100.00;103375.66;4776283;29;20712;-76
2023/12/17 09:43:59;;;;;;;23.67;11.23;;;;;;;9.31;100.00;103383.94;4781809;29;20118;-76
2023/12/17 09:46:25;;;;;;;21.00;9.77;;;;;;;9.33;100.00;103387.25;4779271;29;20404;-76
2023/12/17 09:48:50;;;;;;;24.05;10.43;;;;;;;9.30;100.00;103379.50;4781048;29;20043;-76
2023/12/17 09:51:17;;;;;;;18.85;10.32;;;;;;;9.31;100.00;103390.34;4776947;29;20065;-76
2023/12/17 09:53:43;;;;;;;25.30;10.27;;;;;;;9.32;100.00;103382.81;4781904;29;20039;-76
2023/12/17 09:56:10;;;;;;;17.23;8.98;;;;;;;9.26;100.00;103382.06;4783692;29;20031;-77
2023/12/17 09:58:35;;;;;;;18.35;8.45;;;;;;;9.25;100.00;103382.38;4783784;29;20043;-77
2023/12/17 10:01:01;;;;;;;18.13;10.40;;;;;;;9.31;100.00;103376.38;4781817;29;20042;-77
2023/12/17 10:03:26;;;;;;;17.02;9.10;;;;;;;9.32;100.00;103386.44;4781209;29;20039;-76
2023/12/17 10:05:53;;;;;;;16.40;8.38;;;;;;;9.31;100.00;103368.00;4784769;29;20031;-76
2023/12/17 10:08:19;;;;;;;19.23;8.98;;;;;;;9.31;100.00;103381.13;4783138;29;20515;-76
2023/12/17 10:10:44;;;;;;;18.98;10.18;;;;;;;9.30;100.00;103377.53;4779348;29;20031;-77
2023/12/17 10:13:12;;;;;;;20.15;9.90;;;;;;;9.25;100.00;103373.97;4787218;29;20054;-76
2023/12/17 10:15:38;;;;;;;20.67;9.85;;;;;;;9.30;100.00;103360.75;4780134;29;20070;-76
2023/12/17 10:18:06;;;;;;;17.35;9.00;;;;;;;9.37;100.00;103371.53;4777321;29;20476;-75
2023/12/17 10:20:32;;;;;;;20.38;10.20;;;;;;;9.37;100.00;103371.53;4787362;29;20409;-75
2023/12/17 10:22:59;;;;;;;19.70;10.85;;;;;;;9.39;100.00;103360.88;4778145;29;20042;-75
2023/12/17 10:25:25;;;;;;;19.42;10.35;;;;;;;9.29;100.00;103364.66;4779111;29;20645;-75
2023/12/17 10:27:57;;;;;;;23.67;11.15;;;;;;;9.28;100.00;103354.63;4781513;29;20027;-75
2023/12/17 10:30:36;;;;;;;19.67;9.82;;;;;;;9.23;100.00;103354.72;4775369;29;20134;-74
2023/12/17 10:33:03;;;;;;;20.90;10.15;;;;;;;9.27;100.00;103366.13;4787410;29;20039;-75
2023/12/17 10:35:30;;;;;;;21.13;9.63;;;;;;;9.35;100.00;103359.81;4783086;29;20035;-75
2023/12/17 10:38:02;;;;;;;22.60;10.38;;;;;;;9.31;100.00;103351.22;4784755;29;20046;-74
2023/12/17 10:40:28;;;;;;;24.60;11.65;;;;;;;9.25;100.00;103354.41;4781283;29;21189;-74
2023/12/17 10:42:56;;;;;;;22.77;11.52;;;;;;;9.34;100.00;103349.78;4779634;29;20038;-74
2023/12/17 10:45:23;;;;;;;28.13;13.15;;;;;;;9.36;100.00;103353.94;4795648;29;20050;-74
2023/12/17 10:47:53;;;;;;;23.25;11.10;;;;;;;9.35;100.00;103357.03;4782268;29;20658;-74
2023/12/17 10:50:19;;;;;;;26.42;13.35;;;;;;;9.31;100.00;103344.81;4781660;29;20134;-74
2023/12/17 10:52:47;;;;;;;25.52;11.65;;;;;;;9.36;100.00;103353.09;4782856;29;20563;-74
2023/12/17 10:55:12;;;;;;;28.15;11.45;;;;;;;9.32;100.00;103350.09;4785599;29;20039;-74
2023/12/17 10:57:39;;;;;;;30.92;14.82;;;;;;;9.36;100.00;103358.69;4783639;29;20042;-74
2023/12/17 11:00:07;;;;;;;29.73;12.48;;;;;;;9.29;100.00;103349.88;4784611;29;20411;-74
2023/12/17 11:02:33;;;;;;;31.85;13.07;;;;;;;9.29;100.00;103358.25;4780678;29;20507;-74
2023/12/17 11:04:59;;;;;;;29.17;12.23;;;;;;;9.35;100.00;103360.63;4783392;29;20038;-74
2023/12/17 11:07:24;;;;;;;25.65;11.75;;;;;;;9.33;100.00;103350.91;4779942;29;20031;-74
2023/12/17 11:09:50;;;;;;;35.67;14.85;;;;;;;9.28;100.00;103351.03;4781870;29;20050;-74
2023/12/17 11:12:18;;;;;;;32.75;14.82;;;;;;;9.25;100.00;103343.25;4784719;29;20085;-75
2023/12/17 11:14:44;;;;;;;28.55;13.15;;;;;;;9.25;100.00;103340.44;4786106;29;20038;-74
2023/12/17 11:17:15;;;;;;;30.15;15.05;;;;;;;9.36;100.00;103334.38;4777644;29;20046;-75
2023/12/17 11:19:56;;;;;;;33.38;14.63;;;;;;;9.35;100.00;103340.25;4782236;29;20046;-75
2023/12/17 11:22:22;;;;;;;34.35;13.77;;;;;;;9.35;100.00;103335.47;4779837;29;20536;-74
2023/12/17 11:24:48;;;;;;;33.03;14.60;;;;;;;9.29;100.00;103333.09;4780741;29;20066;-75
2023/12/17 11:27:14;;;;;;;33.13;14.50;;;;;;;9.31;100.00;103339.22;4789500;29;20042;-74
2023/12/17 11:29:39;;;;;;;35.15;15.07;;;;;;;9.32;100.00;103338.09;4786129;29;20046;-74
2023/12/17 11:32:08;;;;;;;24.05;12.25;;;;;;;9.39;100.00;103335.69;4779253;29;20035;-75
2023/12/17 11:34:36;;;;;;;33.10;14.98;;;;;;;9.33;100.00;103337.75;4779915;29;20042;-75
2023/12/17 11:37:02;;;;;;;33.05;15.77;;;;;;;9.25;100.00;103330.09;4783273;29;20484;-75
2023/12/17 11:39:28;;;;;;;35.08;15.02;;;;;;;9.41;100.00;103338.19;4781162;29;20039;-75
2023/12/17 11:41:54;;;;;;;28.85;13.10;;;;;;;9.34;100.00;103325.47;4792758;29;20065;-74
2023/12/17 11:44:19;;;;;;;29.50;11.98;;;;;;;9.34;100.00;103316.25;4778247;29;20555;-75
2023/12/17 11:46:48;;;;;;;30.35;15.75;;;;;;;9.38;100.00;103316.44;4777412;29;20055;-76
2023/12/17 11:49:24;;;;;;;27.00;12.43;;;;;;;9.33;100.00;103320.16;4779448;29;20049;-75
2023/12/17 11:51:53;;;;;;;25.60;12.05;;;;;;;9.34;100.00;103316.25;4780550;29;20118;-76
2023/12/17 11:54:20;;;;;;;28.25;12.18;;;;;;;9.27;100.00;103310.22;4781188;29;20041;-75
2023/12/17 11:56:48;;;;;;;30.10;12.25;;;;;;;9.24;100.00;103305.28;4778348;29;20042;-75
2023/12/17 11:59:13;;;;;;;30.23;13.52;;;;;;;9.21;100.00;103305.88;4777019;29;20071;-75
2023/12/17 12:01:39;;;;;;;26.67;12.38;;;;;;;9.27;100.00;103313.03;4779065;29;20085;-75
2023/12/17 12:04:05;;;;;;;26.20;12.45;;;;;;;9.30;100.00;103301.25;4780616;29;20035;-75
2023/12/17 12:06:30;;;;;;;27.65;13.60;;;;;;;9.36;100.00;103302.78;4781184;29;20088;-76
2023/12/17 12:08:58;;;;;;;28.95;12.98;;;;;;;9.40;100.00;103291.81;4776730;29;20047;-75
2023/12/17 12:11:30;;;;;;;27.02;12.18;;;;;;;9.33;100.00;103292.22;4778735;29;20089;-75
2023/12/17 12:13:57;;;;;;;29.17;13.70;;;;;;;9.26;100.00;103275.06;4777450;29;20096;-75
2023/12/17 12:16:22;;;;;;;31.05;13.43;;;;;;;9.25;100.00;103270.59;4780067;29;20035;-75
2023/12/17 12:18:59;;;;;;;25.33;11.60;;;;;;;9.15;100.00;103271.63;4781021;29;20057;-75
2023/12/17 12:21:24;;;;;;;26.55;12.80;;;;;;;9.19;100.00;103274.63;4778770;29;20046;-75
2023/12/17 12:23:57;;;;;;;29.17;12.10;;;;;;;9.22;100.00;103269.25;4795194;29;20416;-75
2023/12/17 12:26:24;;;;;;;29.70;13.13;;;;;;;9.21;100.00;103261.16;4781783;29;20042;-75
2023/12/17 12:28:57;;;;;;;24.25;11.93;;;;;;;9.17;100.00;103258.19;4777274;29;20502;-75
2023/12/17 12:31:24;;;;;;;30.25;12.90;;;;;;;9.24;100.00;103249.38;4776600;29;20500;-75
2023/12/17 12:33:54;;;;;;;27.00;12.75;;;;;;;9.26;100.00;103253.50;4781667;29;20043;-75
2023/12/17 12:36:19;;;;;;;28.35;13.25;;;;;;;9.32;100.00;103251.44;4781358;29;20034;-75
2023/12/17 12:38:45;;;;;;;27.33;11.80;;;;;;;9.28;100.00;103258.81;4774417;29;20035;-75
2023/12/17 12:41:14;;;;;;;28.67;12.40;;;;;;;9.27;100.00;103243.16;4779017;29;20050;-75
2023/12/17 12:43:40;;;;;;;30.92;13.55;;;;;;;9.24;100.00;103238.19;4783004;29;20033;-75
2023/12/17 12:46:06;;;;;;;31.15;12.40;;;;;;;9.33;100.00;103241.91;4782193;29;20064;-75
2023/12/17 12:48:32;;;;;;;31.45;14.07;;;;;;;9.30;100.00;103229.41;4783652;29;20615;-75
2023/12/17 12:50:57;;;;;;;30.10;13.35;;;;;;;9.34;100.00;103226.81;4777611;29;20126;-75
2023/12/17 12:53:23;;;;;;;31.02;14.30;;;;;;;9.32;100.00;103218.72;4780068;29;20051;-75
2023/12/17 12:55:49;;;;;;;27.88;13.15;;;;;;;9.26;100.00;103216.34;4784484;29;20039;-74
2023/12/17 12:58:16;;;;;;;32.15;14.13;;;;;;;9.28;100.00;103209.31;4790250;29;20038;-73
2023/12/17 13:00:43;;;;;;;29.10;14.50;;;;;;;9.31;100.00;103213.44;4781661;29;20035;-74
2023/12/17 13:03:09;;;;;;;29.38;13.20;;;;;;;9.40;100.00;103205.97;4789081;29;20039;-75
2023/12/17 13:05:35;;;;;;;25.20;12.27;;;;;;;9.37;100.00;103206.59;4786169;29;20039;-73
2023/12/17 13:08:00;;;;;;;22.80;12.30;;;;;;;9.41;100.00;103204.84;4788046;29;20035;-74
2023/12/17 13:10:25;;;;;;;27.02;11.75;;;;;;;9.40;100.00;103202.34;4785186;29;20130;-73
2023/12/17 13:12:50;;;;;;;28.27;12.95;;;;;;;9.39;100.00;103201.53;4780022;29;20047;-74
2023/12/17 13:15:16;;;;;;;28.10;11.95;;;;;;;9.38;100.00;103201.84;4785104;29;20130;-73
2023/12/17 13:17:42;;;;;;;27.08;13.00;;;;;;;9.35;100.00;103195.72;4798933;29;20069;-73
2023/12/17 13:20:08;;;;;;;26.90;10.52;;;;;;;9.40;100.00;103196.75;4788371;29;20069;-73
2023/12/17 13:22:33;;;;;;;27.17;12.13;;;;;;;9.35;100.00;103197.72;4785415;29;20074;-72
2023/12/17 13:24:59;;;;;;;31.80;12.35;;;;;;;9.37;100.00;103198.22;4787979;29;20477;-73
2023/12/17 13:27:24;;;;;;;27.83;12.57;;;;;;;9.41;100.00;103201.22;4782972;29;20089;-72
2023/12/17 13:29:50;;;;;;;20.90;11.40;;;;;;;9.37;100.00;103192.63;4781791;29;20045;-74
2023/12/17 13:32:15;;;;;;;25.02;10.52;;;;;;;9.41;100.00;103190.88;4784680;29;20035;-72
2023/12/17 13:34:42;;;;;;;21.48;11.88;;;;;;;9.42;100.00;103189.72;4785334;29;20070;-72
2023/12/17 13:37:08;;;;;;;21.90;10.75;;;;;;;9.47;100.00;103192.41;4779941;29;20291;-73
2023/12/17 13:39:36;;;;;;;25.85;10.70;;;;;;;9.35;100.00;103183.72;4786224;29;20093;-73
2023/12/17 13:42:01;;;;;;;21.73;10.43;;;;;;;9.41;100.00;103176.88;4786022;29;20027;-73
2023/12/17 13:44:26;;;;;;;26.17;12.95;;;;;;;9.47;100.00;103186.81;4783845;29;22057;-73
2023/12/17 13:46:52;;;;;;;22.58;10.77;;;;;;;9.35;100.00;103184.56;4787050;29;20482;-74
2023/12/17 13:49:17;;;;;;;24.02;11.05;;;;;;;9.42;100.00;103178.53;4788852;29;20089;-74
2023/12/17 13:51:42;;;;;;;21.55;9.90;;;;;;;9.42;100.00;103175.72;4790852;29;20145;-73
2023/12/17 13:54:08;;;;;;;24.75;9.48;;;;;;;9.39;100.00;103173.56;4790087;29;20043;-73
2023/12/17 13:56:33;;;;;;;20.73;9.60;;;;;;;9.32;100.00;103164.81;4788051;29;20039;-74
2023/12/17 13:58:58;;;;;;;23.13;9.23;;;;;;;9.37;100.00;103156.28;4787903;29;20031;-74
2023/12/17 14:01:25;;;;;;;22.63;8.63;;;;;;;9.37;100.00;103164.69;4780846;29;20039;-74
2023/12/17 14:03:52;;;;;;;20.95;8.88;;;;;;;9.35;100.00;103145.41;4784289;29;20476;-73
2023/12/17 14:06:18;;;;;;;19.15;9.15;;;;;;;9.36;100.00;103163.03;4783035;29;20137;-75
2023/12/17 14:08:43;;;;;;;21.02;8.88;;;;;;;9.36;100.00;103157.44;4778191;29;20146;-75
2023/12/17 14:11:09;;;;;;;19.95;8.18;;;;;;;9.36;100.00;103157.44;4783374;29;20380;-75
2023/12/17 14:13:35;;;;;;;26.20;10.25;;;;;;;9.34;100.00;103149.38;4783874;29;20067;-75
2023/12/17 14:16:00;;;;;;;22.45;8.52;;;;;;;9.30;100.00;103147.53;4800611;29;20042;-75
2023/12/17 14:18:25;;;;;;;21.52;8.23;;;;;;;9.31;100.00;103146.38;4784203;29;20547;-75
2023/12/17 14:20:51;;;;;;;19.45;9.40;;;;;;;9.31;100.00;103149.97;4784126;29;20042;-75
2023/12/17 14:23:16;;;;;;;20.95;9.90;;;;;;;9.37;100.00;103136.72;4787097;29;20035;-75
2023/12/17 14:25:42;;;;;;;24.13;9.68;;;;;;;9.31;100.00;103149.16;4798091;29;20030;-75
2023/12/17 14:28:07;;;;;;;25.05;11.02;;;;;;;9.19;100.00;103137.69;4792546;29;20072;-75
2023/12/17 14:30:33;;;;;;;19.55;9.35;;;;;;;9.26;100.00;103136.13;4779858;29;20043;-75
2023/12/17 14:32:59;;;;;;;18.92;8.23;;;;;;;9.24;100.00;103132.00;4783538;29;20062;-75
2023/12/17 14:35:24;;;;;;;20.98;8.80;;;;;;;9.21;100.00;103133.44;4783049;29;20401;-75
2023/12/17 14:37:50;;;;;;;26.10;9.43;;;;;;;9.20;100.00;103133.78;4784337;29;20042;-75
2023/12/17 14:40:15;;;;;;;21.95;8.45;;;;;;;9.16;100.00;103128.78;4785913;29;20042;-75
2023/12/17 14:42:40;;;;;;;23.02;9.60;;;;;;;9.06;100.00;103126.22;4787298;29;20558;-75
2023/12/17 14:45:07;;;;;;;21.52;8.73;;;;;;;9.11;100.00;103128.09;4796668;29;20535;-75
2023/12/17 14:47:33;;;;;;;23.83;8.15;;;;;;;9.10;100.00;103132.84;4786034;29;20051;-75
2023/12/17 14:49:58;;;;;;;21.60;8.63;;;;;;;9.07;100.00;103116.72;4783715;29;20165;-75
2023/12/17 14:52:24;;;;;;;18.85;10.05;;;;;;;9.05;100.00;103123.75;4780739;29;20134;-75
2023/12/17 14:54:49;;;;;;;21.40;10.27;;;;;;;9.08;100.00;103112.75;4796739;29;20039;-75
2023/12/17 14:57:14;;;;;;;21.10;7.18;;;;;;;9.04;100.00;103122.09;4784739;29;20449;-75
2023/12/17 14:59:40;;;;;;;22.60;8.38;;;;;;;9.09;100.00;103113.63;4781354;29;20484;-75
2023/12/17 15:02:05;;;;;;;17.65;8.30;;;;;;;9.01;100.00;103105.97;4784432;29;20050;-75
2023/12/17 15:04:31;;;;;;;16.80;6.35;;;;;;;9.01;100.00;103106.78;4779759;29;20067;-75
2023/12/17 15:06:56;;;;;;;16.88;7.07;;;;;;;8.98;100.00;103113.00;4793753;29;20414;-75
2023/12/17 15:09:24;;;;;;;18.70;7.47;;;;;;;8.99;100.00;103103.47;4792152;29;20126;-75
2023/12/17 15:11:53;;;;;;;17.60;7.43;;;;;;;8.95;100.00;103110.81;4782606;29;20032;-75
2023/12/17 15:14:18;;;;;;;14.32;6.63;;;;;;;8.98;100.00;103104.63;4796470;29;20035;-75
2023/12/17 15:16:43;;;;;;;14.95;7.75;;;;;;;8.91;100.00;103099.44;4781578;29;20047;-76
2023/12/17 15:19:10;;;;;;;15.80;8.20;;;;;;;8.95;100.00;103102.44;4782306;29;20088;-76
2023/12/17 15:21:35;;;;;;;14.75;5.65;;;;;;;8.92;100.00;103094.72;4798701;29;20540;-76
2023/12/17 15:24:01;;;;;;;14.88;7.35;;;;;;;8.90;100.00;103099.78;4779018;29;20121;-76
2023/12/17 15:26:26;;;;;;;14.07;6.88;;;;;;;8.84;100.00;103101.84;4790097;29;20555;-76
2023/12/17 15:28:53;;;;;;;12.75;5.72;;;;;;;8.88;100.00;103097.28;4782842;29;20488;-76
2023/12/17 15:31:18;;;;;;;13.13;6.25;;;;;;;8.80;100.00;103100.00;4785706;29;20110;-76
2023/12/17 15:33:44;;;;;;;20.50;6.15;;;;;;;8.82;100.00;103103.31;4786135;29;20461;-76
2023/12/17 15:36:09;;;;;;;13.57;6.57;;;;;;;8.79;100.00;103099.16;4785886;29;20038;-76
2023/12/17 15:38:39;;;;;;;17.10;5.22;;;;;;;8.64;100.00;103085.50;4800624;29;20500;-76
2023/12/17 15:41:16;;;;;;;14.43;5.13;;;;;;;8.69;100.00;103089.03;4784883;29;20043;-76
2023/12/17 15:43:41;;;;;;;13.55;6.43;;;;;;;8.67;100.00;103074.56;4783827;29;20035;-76
2023/12/17 15:46:20;;;;;;;10.30;5.28;;;;;;;8.71;100.00;103070.00;4788445;29;20595;-76
2023/12/17 15:48:46;;;;;;;11.90;5.60;;;;;;;8.61;100.00;103078.59;4786045;29;20058;-76
2023/12/17 15:51:15;;;;;;;15.63;4.22;;;;;;;8.64;100.00;103075.16;4783531;29;20042;-76
2023/12/17 15:53:41;;;;;;;13.95;4.90;;;;;;;8.67;100.00;103073.75;4784664;29;20027;-76
2023/12/17 15:56:06;;;;;;;10.80;4.75;;;;;;;8.63;100.00;103067.13;4785299;29;20035;-76
2023/12/17 15:58:31;;;;;;;14.40;5.05;;;;;;;8.52;100.00;103078.50;4794287;29;20036;-76
2023/12/17 16:00:58;;;;;;;19.63;4.43;;;;;;;8.56;100.00;103078.72;4781791;29;20089;-76
2023/12/17 16:03:23;;;;;;;12.02;4.40;;;;;;;8.50;100.00;103072.38;4782132;29;20039;-75
2023/12/17 16:05:49;;;;;;;13.20;4.15;;;;;;;8.47;100.00;103066.59;4786730;29;20165;-76
2023/12/17 16:08:14;;;;;;;12.35;4.80;;;;;;;8.45;100.00;103071.66;4788756;29;20063;-76
2023/12/17 16:10:40;;;;;;;12.07;4.07;;;;;;;8.35;100.00;103067.91;4786343;29;20039;-76
2023/12/17 16:13:05;;;;;;;13.63;4.05;;;;;;;8.44;100.00;103064.44;4783147;29;20408;-76
2023/12/17 16:15:32;;;;;;;14.40;5.10;;;;;;;8.44;100.00;103070.03;4789705;29;20035;-75
2023/12/17 16:17:57;;;;;;;8.70;4.85;;;;;;;8.50;100.00;103071.56;4780744;29;20484;-76
2023/12/17 16:20:24;;;;;;;14.52;4.70;;;;;;;8.50;100.00;103071.56;4781472;29;20046;-75
2023/12/17 16:22:49;;;;;;;8.90;3.95;;;;;;;8.43;100.00;103073.94;4782393;29;20827;-75
2023/12/17 16:25:15;;;;;;;10.95;3.83;;;;;;;8.31;100.00;103074.44;4785321;29;20054;-75
2023/12/17 16:27:40;;;;;;;18.63;5.28;;;;;;;8.32;100.00;103073.28;4784056;29;20035;-75
2023/12/17 16:30:06;;;;;;;10.80;4.22;;;;;;;8.26;100.00;103080.09;4778693;29;20088;-76
2023/12/17 16:32:31;;;;;;;12.80;4.85;;;;;;;8.27;100.00;103082.56;4779833;29;20043;-76
2023/12/17 16:34:57;;;;;;;18.42;5.40;;;;;;;8.32;100.00;103085.25;4781263;29;20114;-75
2023/12/17 16:37:22;;;;;;;19.83;4.47;;;;;;;8.26;100.00;103085.66;4778356;29;20035;-76
2023/12/17 16:39:47;;;;;;;10.90;4.30;;;;;;;8.21;100.00;103078.22;4773039;29;20043;-74
2023/12/17 16:42:13;;;;;;;11.43;4.35;;;;;;;8.25;100.00;103068.09;4791597;29;20046;-76
2023/12/17 16:44:38;;;;;;;12.05;4.95;;;;;;;8.27;100.00;103077.00;4779950;29;20035;-75
2023/12/17 16:47:04;;;;;;;8.52;4.35;;;;;;;8.22;100.00;103088.28;4794635;29;20059;-76
2023/12/17 16:49:29;;;;;;;14.45;5.07;;;;;;;8.28;100.00;103084.22;4786279;29;20067;-75
2023/12/17 16:51:55;;;;;;;15.50;5.22;;;;;;;8.11;100.00;103087.59;4784669;29;20035;-75
2023/12/17 16:54:20;;;;;;;17.13;4.32;;;;;;;8.23;100.00;103084.31;4780121;29;20036;-75